Time;durP1;ratioP1;P1;durP2;ratioP2;P2;SDS_P1;SDS_P2;PMS_P1;PMS_P2;Temp;Humidity;BMP_temperature;BMP_pressure;BME280_temperature;BME280_humidity;BME280_pressure;Samples;Min_cycle;Max_cycle;Signal;HPM_P1;HPM_P2
2022/06/25 00:02:52;;;;;;;9.50;2.30;;;;;;;;;;10287647;28;20061;-63
2022/06/25 00:07:50;;;;;;;7.30;2.42;;;;;;;;;;10278810;28;20314;-62
2022/06/25 00:12:49;;;;;;;3.10;2.10;;;;;;;;;;10282543;28;20060;-63
2022/06/25 00:17:47;;;;;;;4.10;1.92;;;;;;;;;;10285207;28;20045;-63
2022/06/25 00:22:47;;;;;;;4.75;1.73;;;;;;;;;;10281530;28;20083;-62
2022/06/25 00:27:46;;;;;;;11.32;2.10;;;;;;;;;;10281862;28;20076;-64
2022/06/25 00:32:45;;;;;;;3.35;1.80;;;;;;;;;;10281681;28;20041;-63
2022/06/25 00:37:43;;;;;;;4.10;2.25;;;;;;;;;;10280847;28;20091;-63
2022/06/25 00:42:43;;;;;;;3.95;1.95;;;;;;;;;;10279329;28;20091;-63
2022/06/25 00:47:41;;;;;;;4.35;2.08;;;;;;;;;;10283838;28;20079;-63
2022/06/25 00:52:41;;;;;;;3.20;1.88;;;;;;;;;;10280259;28;20080;-63
2022/06/25 00:57:50;;;;;;;3.65;2.10;;;;;;;;;;10281139;28;20069;-63
2022/06/25 01:02:48;;;;;;;7.07;2.05;;;;;;;;;;10280587;28;20080;-63
2022/06/25 01:07:47;;;;;;;7.32;2.20;;;;;;;;;;10280616;28;20052;-63
2022/06/25 01:12:48;;;;;;;9.68;2.35;;;;;;;;;;10278643;28;20053;-63
2022/06/25 01:17:49;;;;;;;3.88;1.80;;;;;;;;;;10277064;28;20064;-63
2022/06/25 01:22:49;;;;;;;5.82;2.30;;;;;;;;;;10280744;28;20238;-63
2022/06/25 01:27:47;;;;;;;2.10;1.90;;;;;;;;;;10282415;28;20075;-63
2022/06/25 01:32:46;;;;;;;2.83;1.60;;;;;;;;;;10281001;28;20076;-63
2022/06/25 01:37:48;;;;;;;5.28;1.83;;;;;;;;;;10279249;28;20494;-65
2022/06/25 01:43:02;;;;;;;7.00;2.45;;;;;;;;;;10277306;28;20068;-65
2022/06/25 01:48:01;;;;;;;8.40;2.72;;;;;;;;;;10297330;28;20056;-66
2022/06/25 01:53:01;;;;;;;4.68;2.65;;;;;;;;;;10278837;28;20068;-66
2022/06/25 01:58:00;;;;;;;2.45;2.20;;;;;;;;;;10279517;28;20045;-64
2022/06/25 02:02:59;;;;;;;3.95;2.55;;;;;;;;;;10276844;28;20084;-64
2022/06/25 02:08:03;;;;;;;7.75;2.00;;;;;;;;;;10276654;28;20449;-65
2022/06/25 02:13:01;;;;;;;6.82;2.05;;;;;;;;;;10279748;28;20041;-64
2022/06/25 02:17:59;;;;;;;4.45;1.98;;;;;;;;;;10276314;28;20535;-66
2022/06/25 02:22:58;;;;;;;4.15;1.88;;;;;;;;;;10277147;28;20522;-65
2022/06/25 02:27:58;;;;;;;2.85;2.00;;;;;;;;;;10275763;28;20494;-65
2022/06/25 02:32:56;;;;;;;2.65;2.10;;;;;;;;;;10280453;28;20107;-65
2022/06/25 02:37:54;;;;;;;3.55;2.22;;;;;;;;;;10278914;28;20518;-65
2022/06/25 02:42:58;;;;;;;7.45;3.20;;;;;;;;;;10275861;28;20469;-65
2022/06/25 02:48:01;;;;;;;3.33;2.78;;;;;;;;;;10274413;28;20057;-65
2022/06/25 02:53:00;;;;;;;4.35;2.20;;;;;;;;;;10273577;28;20053;-65
2022/06/25 03:03:16;;;;;;;4.47;2.42;;;;;;;;;;10277148;28;20076;-66
2022/06/25 03:08:15;;;;;;;4.05;2.15;;;;;;;;;;10274090;28;20450;-65
2022/06/25 03:13:15;;;;;;;3.67;3.38;;;;;;;;;;10273651;28;20060;-65
2022/06/25 03:18:14;;;;;;;9.52;3.67;;;;;;;;;;10274732;28;20053;-66
2022/06/25 03:23:35;;;;;;;6.47;3.78;;;;;;;;;;10275538;28;20083;-66
2022/06/25 03:28:37;;;;;;;4.72;3.55;;;;;;;;;;10277952;28;20045;-65
2022/06/25 03:33:36;;;;;;;9.68;3.38;;;;;;;;;;10274339;28;20052;-65
2022/06/25 03:38:39;;;;;;;6.33;2.90;;;;;;;;;;10277637;28;20053;-65
2022/06/25 03:43:39;;;;;;;5.15;3.33;;;;;;;;;;10281891;28;20085;-65
2022/06/25 03:48:38;;;;;;;7.40;3.47;;;;;;;;;;10281599;28;20045;-66
2022/06/25 03:53:46;;;;;;;5.97;3.10;;;;;;;;;;10284223;28;20075;-66
2022/06/25 03:58:46;;;;;;;4.90;3.30;;;;;;;;;;10281566;28;20433;-66
2022/06/25 04:03:45;;;;;;;7.57;3.25;;;;;;;;;;10282086;28;20076;-65
2022/06/25 04:08:45;;;;;;;3.42;2.70;;;;;;;;;;10281118;28;20511;-65
2022/06/25 04:13:48;;;;;;;2.78;2.38;;;;;;;;;;10280255;28;20088;-64
2022/06/25 04:18:46;;;;;;;5.60;3.58;;;;;;;;;;10282738;28;20053;-64
2022/06/25 04:23:46;;;;;;;5.85;3.47;;;;;;;;;;10282353;28;20120;-64
2022/06/25 04:29:08;;;;;;;7.78;2.70;;;;;;;;;;10280428;28;20057;-64
2022/06/25 04:34:12;;;;;;;7.63;2.85;;;;;;;;;;10279426;28;20056;-64
2022/06/25 04:39:11;;;;;;;10.45;3.58;;;;;;;;;;10280129;28;20415;-64
2022/06/25 04:44:11;;;;;;;8.55;3.90;;;;;;;;;;10282640;28;20503;-64
2022/06/25 04:49:10;;;;;;;7.97;3.65;;;;;;;;;;10282317;28;20100;-65
2022/06/25 04:54:15;;;;;;;8.70;3.72;;;;;;;;;;10278151;28;20513;-65
2022/06/25 04:59:23;;;;;;;4.68;3.60;;;;;;;;;;10281604;28;20537;-65
2022/06/25 05:04:39;;;;;;;6.88;4.05;;;;;;;;;;10278859;28;20088;-65
2022/06/25 05:09:38;;;;;;;9.77;3.90;;;;;;;;;;10276973;28;20521;-64
2022/06/25 05:14:41;;;;;;;6.72;4.30;;;;;;;;;;10276669;28;20479;-65
2022/06/25 05:19:40;;;;;;;11.25;4.07;;;;;;;;;;10282042;28;20045;-64
2022/06/25 05:24:38;;;;;;;11.05;4.90;;;;;;;;;;10286875;28;20108;-65
2022/06/25 05:29:37;;;;;;;11.00;5.13;;;;;;;;;;10287329;28;20059;-65
2022/06/25 05:34:36;;;;;;;14.80;4.43;;;;;;;;;;10279067;28;20052;-65
2022/06/25 05:39:35;;;;;;;4.05;2.97;;;;;;;;;;10286789;28;20053;-66
2022/06/25 05:44:33;;;;;;;4.07;2.47;;;;;;;;;;10277130;28;20092;-63
2022/06/25 05:49:31;;;;;;;5.20;3.80;;;;;;;;;;10277165;28;20048;-64
2022/06/25 05:54:31;;;;;;;12.35;4.72;;;;;;;;;;10278503;28;20052;-64
2022/06/25 05:59:30;;;;;;;7.05;3.10;;;;;;;;;;10277667;28;20456;-65
2022/06/25 06:04:28;;;;;;;3.67;3.05;;;;;;;;;;10277469;28;20080;-65
2022/06/25 06:09:27;;;;;;;3.72;3.03;;;;;;;;;;10277475;28;20455;-65
2022/06/25 06:14:27;;;;;;;9.32;3.10;;;;;;;;;;10277189;28;20493;-65
2022/06/25 06:19:26;;;;;;;4.95;2.65;;;;;;;;;;10277445;28;20068;-65
2022/06/25 06:24:24;;;;;;;3.63;2.55;;;;;;;;;;10279826;28;20514;-65
2022/06/25 06:29:23;;;;;;;3.38;2.58;;;;;;;;;;10276951;28;20075;-65
2022/06/25 06:34:22;;;;;;;8.60;3.65;;;;;;;;;;10282990;28;20522;-65
2022/06/25 06:39:21;;;;;;;4.05;3.40;;;;;;;;;;10276898;28;20080;-65
2022/06/25 06:44:19;;;;;;;6.55;2.95;;;;;;;;;;10287411;28;20087;-65
2022/06/25 06:49:17;;;;;;;5.30;2.97;;;;;;;;;;10277050;28;20071;-65
2022/06/25 06:54:17;;;;;;;6.40;3.15;;;;;;;;;;10279640;28;20076;-65
2022/06/25 06:59:15;;;;;;;6.05;2.70;;;;;;;;;;10276329;28;20052;-65
2022/06/25 07:04:14;;;;;;;10.15;2.97;;;;;;;;;;10282197;28;20076;-65
2022/06/25 07:09:12;;;;;;;6.30;2.40;;;;;;;;;;10278759;28;20457;-65
2022/06/25 07:14:13;;;;;;;4.90;2.90;;;;;;;;;;10278782;28;20075;-65
2022/06/25 07:19:12;;;;;;;7.28;3.15;;;;;;;;;;10283442;28;20537;-66
2022/06/25 07:24:10;;;;;;;5.13;3.03;;;;;;;;;;10283052;28;20118;-65
2022/06/25 07:29:09;;;;;;;8.75;3.03;;;;;;;;;;10285893;28;20514;-65
2022/06/25 07:34:08;;;;;;;3.92;2.85;;;;;;;;;;10285895;28;20513;-65
2022/06/25 07:39:08;;;;;;;7.47;3.00;;;;;;;;;;10283069;28;20045;-66
2022/06/25 07:44:06;;;;;;;4.80;2.95;;;;;;;;;;10282963;28;20072;-65
2022/06/25 07:49:04;;;;;;;6.68;3.25;;;;;;;;;;10282499;28;20045;-65
2022/06/25 07:54:04;;;;;;;5.32;3.28;;;;;;;;;;10285138;28;20071;-65
2022/06/25 07:59:03;;;;;;;6.45;3.33;;;;;;;;;;10282750;28;20079;-65
2022/06/25 08:04:04;;;;;;;4.32;2.53;;;;;;;;;;10282666;28;20095;-65
2022/06/25 08:09:04;;;;;;;3.28;2.95;;;;;;;;;;10288506;28;20041;-65
2022/06/25 08:14:03;;;;;;;3.42;3.05;;;;;;;;;;10278495;28;20498;-65
2022/06/25 08:19:03;;;;;;;6.00;2.97;;;;;;;;;;10281106;28;20065;-65
2022/06/25 08:24:01;;;;;;;2.75;2.50;;;;;;;;;;10283353;28;20175;-66
2022/06/25 08:29:01;;;;;;;7.15;2.70;;;;;;;;;;10280534;28;20084;-65
2022/06/25 08:33:59;;;;;;;3.78;2.72;;;;;;;;;;10287106;28;20068;-65
2022/06/25 08:38:58;;;;;;;5.03;2.83;;;;;;;;;;10292058;28;20068;-65
2022/06/25 08:43:56;;;;;;;6.00;3.55;;;;;;;;;;10283315;28;20053;-65
2022/06/25 08:48:57;;;;;;;3.38;2.85;;;;;;;;;;10283247;28;20068;-65
2022/06/25 08:53:56;;;;;;;5.38;2.90;;;;;;;;;;10280464;28;20099;-65
2022/06/25 08:58:54;;;;;;;8.27;4.00;;;;;;;;;;10281989;28;20487;-65
2022/06/25 09:03:53;;;;;;;3.88;2.92;;;;;;;;;;10279651;28;20088;-65
2022/06/25 09:09:06;;;;;;;6.43;3.95;;;;;;;;;;10277923;28;20438;-65
2022/06/25 09:14:19;;;;;;;3.57;2.83;;;;;;;;;;10317428;28;20049;-65
2022/06/25 09:19:29;;;;;;;6.50;4.90;;;;;;;;;;10276957;28;20414;-65
2022/06/25 09:24:40;;;;;;;4.65;3.30;;;;;;;;;;10277515;28;20084;-66
2022/06/25 09:29:39;;;;;;;10.57;4.88;;;;;;;;;;10286958;28;20080;-65
2022/06/25 09:34:39;;;;;;;3.90;3.55;;;;;;;;;;10278475;28;20068;-66
2022/06/25 09:39:41;;;;;;;3.55;2.72;;;;;;;;;;10277095;28;20076;-65
2022/06/25 09:44:39;;;;;;;3.42;2.60;;;;;;;;;;10287839;28;20084;-66
2022/06/25 09:49:39;;;;;;;4.38;3.50;;;;;;;;;;10279648;28;20072;-65
2022/06/25 09:54:37;;;;;;;6.13;3.53;;;;;;;;;;10279862;28;20489;-66
2022/06/25 09:59:38;;;;;;;6.45;2.83;;;;;;;;;;10281661;28;20092;-67
2022/06/25 10:04:36;;;;;;;3.33;2.42;;;;;;;;;;10278342;28;20076;-65
2022/06/25 10:09:36;;;;;;;8.55;3.08;;;;;;;;;;10287347;28;20502;-66
2022/06/25 10:14:35;;;;;;;8.38;3.40;;;;;;;;;;10277960;28;20079;-67
2022/06/25 10:19:33;;;;;;;7.05;4.07;;;;;;;;;;10281357;28;20091;-65
2022/06/25 10:24:33;;;;;;;3.35;3.00;;;;;;;;;;10282614;28;20680;-66
2022/06/25 10:29:33;;;;;;;5.68;4.85;;;;;;;;;;10279542;28;20065;-64
2022/06/25 10:34:31;;;;;;;10.35;5.95;;;;;;;;;;10279477;28;20041;-66
2022/06/25 10:39:36;;;;;;;7.88;3.80;;;;;;;;;;10282065;28;20064;-65
2022/06/25 10:44:36;;;;;;;10.38;4.47;;;;;;;;;;10279685;28;20072;-67
2022/06/25 10:49:35;;;;;;;5.93;2.70;;;;;;;;;;10283971;28;20090;-66
2022/06/25 10:54:37;;;;;;;5.28;2.72;;;;;;;;;;10285976;28;20489;-67
2022/06/25 10:59:49;;;;;;;6.00;3.50;;;;;;;;;;10286982;28;20469;-66
2022/06/25 11:04:53;;;;;;;7.28;3.28;;;;;;;;;;10286032;28;20088;-67
2022/06/25 11:09:53;;;;;;;4.68;2.88;;;;;;;;;;10286956;28;20163;-68
2022/06/25 11:14:57;;;;;;;4.95;3.65;;;;;;;;;;10290570;28;20106;-68
2022/06/25 11:20:02;;;;;;;7.70;3.72;;;;;;;;;;10287691;28;20080;-67
2022/06/25 11:30:18;;;;;;;6.72;3.25;;;;;;;;;;10288465;28;20072;-67
2022/06/25 11:35:17;;;;;;;5.45;3.40;;;;;;;;;;10287090;28;20079;-68
2022/06/25 11:40:15;;;;;;;9.75;3.42;;;;;;;;;;10284912;28;20115;-68
2022/06/25 11:45:14;;;;;;;8.00;3.10;;;;;;;;;;10288300;28;20068;-68
2022/06/25 11:50:14;;;;;;;4.78;2.97;;;;;;;;;;10287077;28;20068;-68
2022/06/25 11:55:12;;;;;;;7.55;5.38;;;;;;;;;;10286701;28;20099;-67
2022/06/25 12:00:13;;;;;;;5.85;3.25;;;;;;;;;;10284393;28;20068;-67
2022/06/25 12:05:12;;;;;;;6.10;3.55;;;;;;;;;;10285605;28;20107;-67
2022/06/25 12:10:12;;;;;;;6.45;3.22;;;;;;;;;;10287088;28;20060;-67
2022/06/25 12:15:12;;;;;;;6.60;3.03;;;;;;;;;;10286972;28;20525;-68
2022/06/25 12:20:19;;;;;;;5.63;3.45;;;;;;;;;;10284738;28;20068;-66
2022/06/25 12:25:25;;;;;;;4.32;3.60;;;;;;;;;;10282960;28;20088;-67
2022/06/25 12:30:24;;;;;;;5.03;2.60;;;;;;;;;;10284282;28;20531;-67
2022/06/25 12:35:23;;;;;;;6.70;3.55;;;;;;;;;;10285485;28;20095;-67
2022/06/25 12:40:24;;;;;;;4.63;3.25;;;;;;;;;;10285372;28;20083;-68
2022/06/25 12:45:23;;;;;;;6.90;3.33;;;;;;;;;;10286230;28;20064;-68
2022/06/25 12:50:22;;;;;;;4.57;3.20;;;;;;;;;;10284164;28;20080;-68
2022/06/25 12:55:23;;;;;;;6.90;6.13;;;;;;;;;;10279662;28;20065;-68
2022/06/25 13:00:27;;;;;;;14.07;7.22;;;;;;;;;;10281927;28;20971;-67
2022/06/25 13:05:26;;;;;;;6.30;3.80;;;;;;;;;;10284237;28;20069;-68
2022/06/25 13:10:24;;;;;;;8.15;4.40;;;;;;;;;;10294239;28;20080;-68
2022/06/25 13:15:23;;;;;;;7.70;4.47;;;;;;;;;;10285556;28;20091;-68
2022/06/25 13:20:23;;;;;;;6.90;5.88;;;;;;;;;;10286955;28;20099;-68
2022/06/25 13:25:23;;;;;;;5.93;4.10;;;;;;;;;;10286922;28;20080;-68
2022/06/25 13:30:21;;;;;;;5.75;3.63;;;;;;;;;;10285095;28;20072;-68
2022/06/25 13:35:41;;;;;;;7.10;2.30;;;;;;;;;;10281682;28;20064;-68
2022/06/25 13:40:39;;;;;;;5.75;2.97;;;;;;;;;;10280071;28;20075;-68
2022/06/25 13:45:38;;;;;;;6.80;3.60;;;;;;;;;;10282333;28;20072;-68
2022/06/25 13:50:37;;;;;;;3.38;2.80;;;;;;;;;;10282354;28;20075;-68
2022/06/25 13:55:37;;;;;;;6.03;3.67;;;;;;;;;;10280948;28;20075;-68
2022/06/25 14:00:35;;;;;;;5.18;2.80;;;;;;;;;;10283912;28;20060;-67
2022/06/25 14:05:33;;;;;;;4.32;2.60;;;;;;;;;;10285616;28;20481;-68
2022/06/25 14:10:32;;;;;;;2.90;2.33;;;;;;;;;;10281202;28;20072;-67
2022/06/25 14:15:31;;;;;;;10.77;3.38;;;;;;;;;;10279102;28;20497;-67
2022/06/25 14:20:30;;;;;;;3.55;2.83;;;;;;;;;;10282049;28;20079;-68
2022/06/25 14:25:28;;;;;;;6.13;2.50;;;;;;;;;;10279033;28;20090;-67
2022/06/25 14:30:27;;;;;;;9.93;4.57;;;;;;;;;;10279830;28;20094;-69
2022/06/25 14:35:27;;;;;;;3.95;3.20;;;;;;;;;;10287581;28;20081;-68
2022/06/25 14:45:41;;;;;;;8.50;5.07;;;;;;;;;;10293700;28;20500;-68
2022/06/25 14:50:41;;;;;;;4.93;3.92;;;;;;;;;;10301000;28;20619;-67
2022/06/25 14:55:40;;;;;;;8.98;3.25;;;;;;;;;;10276266;28;20048;-67
2022/06/25 15:00:38;;;;;;;6.63;3.22;;;;;;;;;;10280573;28;20122;-68
2022/06/25 15:05:36;;;;;;;5.80;3.10;;;;;;;;;;10275188;28;20087;-67
2022/06/25 15:10:36;;;;;;;6.63;3.03;;;;;;;;;;10278439;28;20080;-68
2022/06/25 15:15:34;;;;;;;4.38;2.40;;;;;;;;;;10273832;28;20128;-68
2022/06/25 15:20:33;;;;;;;6.53;2.53;;;;;;;;;;10285984;28;20076;-68
2022/06/25 15:25:31;;;;;;;7.18;4.10;;;;;;;;;;10274345;28;20092;-68
2022/06/25 15:30:31;;;;;;;6.28;3.28;;;;;;;;;;10279287;28;20087;-68
2022/06/25 15:35:33;;;;;;;4.70;3.25;;;;;;;;;;10275825;28;20514;-66
2022/06/25 15:40:33;;;;;;;6.97;3.20;;;;;;;;;;10286467;28;20091;-67
2022/06/25 15:45:33;;;;;;;10.93;3.50;;;;;;;;;;10283338;28;20083;-67
2022/06/25 15:50:36;;;;;;;4.60;2.75;;;;;;;;;;10285281;28;20073;-68
2022/06/25 15:55:35;;;;;;;5.88;2.97;;;;;;;;;;10285547;28;20065;-68
2022/06/25 16:00:37;;;;;;;4.55;3.35;;;;;;;;;;10292482;28;20076;-67
2022/06/25 16:05:36;;;;;;;4.18;2.90;;;;;;;;;;10284488;28;20525;-67
2022/06/25 16:10:34;;;;;;;4.72;2.50;;;;;;;;;;10287372;28;20488;-67
2022/06/25 16:15:39;;;;;;;6.75;3.13;;;;;;;;;;10288429;28;20131;-68
2022/06/25 16:20:38;;;;;;;9.38;3.78;;;;;;;;;;10290296;28;20082;-68
2022/06/25 16:25:36;;;;;;;12.45;3.90;;;;;;;;;;10295574;28;20069;-69
2022/06/25 16:30:34;;;;;;;7.80;3.75;;;;;;;;;;10288560;28;20072;-64
2022/06/25 16:35:34;;;;;;;5.53;3.75;;;;;;;;;;10282668;28;20061;-63
2022/06/25 16:40:33;;;;;;;7.40;3.08;;;;;;;;;;10278439;28;20155;-64
2022/06/25 16:45:31;;;;;;;9.07;4.35;;;;;;;;;;10281946;28;20085;-65
2022/06/25 16:50:29;;;;;;;12.25;4.57;;;;;;;;;;10280027;28;20073;-64
2022/06/25 16:55:29;;;;;;;6.47;4.03;;;;;;;;;;10282574;28;20072;-63
2022/06/25 17:00:27;;;;;;;6.82;3.63;;;;;;;;;;10282632;28;20096;-64
2022/06/25 17:05:26;;;;;;;8.70;3.92;;;;;;;;;;10275672;28;20099;-64
2022/06/25 17:10:27;;;;;;;14.02;5.63;;;;;;;;;;10278695;28;20367;-65
2022/06/25 17:15:26;;;;;;;15.23;3.83;;;;;;;;;;10278744;28;20073;-64
2022/06/25 17:20:25;;;;;;;8.88;5.78;;;;;;;;;;10283486;28;20095;-64
2022/06/25 17:25:23;;;;;;;5.70;3.80;;;;;;;;;;10285613;28;20084;-64
2022/06/25 17:30:22;;;;;;;15.73;5.25;;;;;;;;;;10279302;28;20080;-63
2022/06/25 17:35:21;;;;;;;10.30;2.95;;;;;;;;;;10281694;28;20037;-64
2022/06/25 17:40:20;;;;;;;9.25;3.10;;;;;;;;;;10277589;28;20064;-64
2022/06/25 17:45:18;;;;;;;10.05;2.90;;;;;;;;;;10278270;28;20033;-64
2022/06/25 17:50:17;;;;;;;8.02;3.92;;;;;;;;;;10279378;28;20490;-64
2022/06/25 17:55:17;;;;;;;11.05;4.18;;;;;;;;;;10281666;28;20072;-64
2022/06/25 18:00:16;;;;;;;10.63;4.00;;;;;;;;;;10277865;28;20064;-63
2022/06/25 18:05:15;;;;;;;4.55;2.90;;;;;;;;;;10279261;28;20091;-63
2022/06/25 18:10:23;;;;;;;12.65;8.32;;;;;;;;;;10280630;28;20095;-64
2022/06/25 18:15:21;;;;;;;10.27;4.10;;;;;;;;;;10276245;28;20473;-63
2022/06/25 18:20:19;;;;;;;7.63;3.03;;;;;;;;;;10276567;28;20055;-63
2022/06/25 18:25:18;;;;;;;9.20;3.47;;;;;;;;;;10279425;28;20080;-64
2022/06/25 18:30:18;;;;;;;8.48;3.05;;;;;;;;;;10280616;28;20498;-64
2022/06/25 18:35:16;;;;;;;6.00;3.17;;;;;;;;;;10277914;28;20068;-64
2022/06/25 18:40:20;;;;;;;6.60;3.50;;;;;;;;;;10277055;28;20092;-64
2022/06/25 18:45:20;;;;;;;24.23;7.70;;;;;;;;;;10279084;28;20102;-64
2022/06/25 18:50:19;;;;;;;8.88;4.80;;;;;;;;;;10277159;28;20084;-64
2022/06/25 18:55:17;;;;;;;5.53;2.70;;;;;;;;;;10276683;28;20080;-63
2022/06/25 19:00:16;;;;;;;3.78;2.78;;;;;;;;;;10277218;28;20148;-63
2022/06/25 19:05:15;;;;;;;5.72;2.88;;;;;;;;;;10279746;28;20447;-62
2022/06/25 19:10:14;;;;;;;8.95;2.72;;;;;;;;;;10287302;28;20523;-64
2022/06/25 19:15:13;;;;;;;6.47;3.60;;;;;;;;;;10286260;28;20068;-65
2022/06/25 19:20:12;;;;;;;6.20;3.47;;;;;;;;;;10282289;28;20045;-65
2022/06/25 19:25:13;;;;;;;3.28;2.53;;;;;;;;;;10284086;28;20081;-65
2022/06/25 19:30:12;;;;;;;6.22;2.72;;;;;;;;;;10286296;28;20076;-64
2022/06/25 19:35:12;;;;;;;5.07;3.92;;;;;;;;;;10282625;28;20080;-64
2022/06/25 19:40:20;;;;;;;3.40;2.65;;;;;;;;;;10286944;28;20080;-64
2022/06/25 19:45:19;;;;;;;7.93;2.63;;;;;;;;;;10285821;28;20479;-63
2022/06/25 19:50:17;;;;;;;5.78;2.80;;;;;;;;;;10281683;28;20076;-64
2022/06/25 19:55:17;;;;;;;6.25;2.65;;;;;;;;;;10309411;28;20429;-62
2022/06/25 20:00:17;;;;;;;7.05;3.10;;;;;;;;;;10283783;28;20084;-62
2022/06/25 20:05:16;;;;;;;3.75;2.80;;;;;;;;;;10283107;28;20060;-63
2022/06/25 20:10:14;;;;;;;7.80;5.22;;;;;;;;;;10281624;28;20092;-63
2022/06/25 20:15:12;;;;;;;5.85;4.80;;;;;;;;;;10281677;28;20087;-64
2022/06/25 20:20:12;;;;;;;9.80;3.25;;;;;;;;;;10279079;28;20411;-64
2022/06/25 20:25:12;;;;;;;6.38;2.83;;;;;;;;;;10285179;28;20563;-63
2022/06/25 20:30:11;;;;;;;6.80;2.92;;;;;;;;;;10281817;28;20079;-63
2022/06/25 20:35:09;;;;;;;5.05;2.63;;;;;;;;;;10287260;28;20053;-63
2022/06/25 20:40:10;;;;;;;5.60;2.85;;;;;;;;;;10280817;28;20048;-62
2022/06/25 20:45:09;;;;;;;4.80;2.35;;;;;;;;;;10280348;28;20049;-63
2022/06/25 20:50:08;;;;;;;5.63;2.33;;;;;;;;;;10279883;28;20088;-63
2022/06/25 20:55:07;;;;;;;11.48;6.25;;;;;;;;;;10281368;28;20080;-63
2022/06/25 21:00:08;;;;;;;12.50;6.43;;;;;;;;;;10281008;28;20509;-63
2022/06/25 21:10:23;;;;;;;4.22;3.45;;;;;;;;;;10312159;28;20083;-63
2022/06/25 21:15:22;;;;;;;6.50;3.58;;;;;;;;;;10287365;28;20073;-63
2022/06/25 21:20:23;;;;;;;8.80;4.18;;;;;;;;;;10282628;28;20088;-64
2022/06/25 21:25:21;;;;;;;8.10;4.50;;;;;;;;;;10298298;28;20076;-64
2022/06/25 21:30:20;;;;;;;5.97;3.20;;;;;;;;;;10297734;28;20638;-64
2022/06/25 21:35:19;;;;;;;5.70;3.00;;;;;;;;;;10279834;28;20048;-64
2022/06/25 21:40:18;;;;;;;4.88;3.50;;;;;;;;;;10279724;28;20068;-64
2022/06/25 21:45:17;;;;;;;6.32;3.88;;;;;;;;;;10288441;28;20080;-64
2022/06/25 21:50:15;;;;;;;5.93;3.85;;;;;;;;;;10281163;28;20084;-64
2022/06/25 21:55:15;;;;;;;6.75;4.03;;;;;;;;;;10279338;28;20091;-63
2022/06/25 22:00:16;;;;;;;6.85;3.20;;;;;;;;;;10282053;28;20076;-63
2022/06/25 22:05:15;;;;;;;7.07;3.28;;;;;;;;;;10285812;28;20056;-62
2022/06/25 22:10:15;;;;;;;9.13;3.53;;;;;;;;;;10277988;28;20095;-64
2022/06/25 22:15:13;;;;;;;5.13;3.00;;;;;;;;;;10285832;28;20497;-63
2022/06/25 22:20:47;;;;;;;6.70;3.22;;;;;;;;;;10277892;28;20068;-64
2022/06/25 22:25:31;;;;;;;7.30;3.45;;;;;;;;;;10288860;28;20087;-64
2022/06/25 22:30:30;;;;;;;5.18;3.78;;;;;;;;;;10280094;28;20077;-63
2022/06/25 22:35:28;;;;;;;6.78;3.08;;;;;;;;;;10279712;28;20399;-64
2022/06/25 22:40:27;;;;;;;4.57;3.40;;;;;;;;;;10289572;28;20110;-63
2022/06/25 22:45:26;;;;;;;10.05;3.45;;;;;;;;;;10303036;28;20068;-63
2022/06/25 22:50:25;;;;;;;3.70;3.40;;;;;;;;;;10297667;28;20080;-63
2022/06/25 22:55:24;;;;;;;5.88;3.35;;;;;;;;;;10293739;28;20072;-63
2022/06/25 23:00:24;;;;;;;5.43;3.40;;;;;;;;;;10297297;28;20513;-63
2022/06/25 23:05:24;;;;;;;8.98;3.78;;;;;;;;;;10293609;28;20060;-63
2022/06/25 23:10:23;;;;;;;4.75;3.20;;;;;;;;;;10293293;28;20302;-64
2022/06/25 23:15:21;;;;;;;5.53;2.83;;;;;;;;;;10295338;28;20474;-63
2022/06/25 23:20:19;;;;;;;8.07;3.50;;;;;;;;;;10293556;28;20049;-63
2022/06/25 23:25:19;;;;;;;6.03;3.47;;;;;;;;;;10289558;28;20081;-63
2022/06/25 23:30:17;;;;;;;3.70;2.90;;;;;;;;;;10289534;28;20080;-63
2022/06/25 23:35:16;;;;;;;4.05;3.25;;;;;;;;;;10290327;28;20159;-63
2022/06/25 23:40:14;;;;;;;7.55;3.33;;;;;;;;;;10290189;28;20091;-63
2022/06/25 23:45:15;;;;;;;3.90;3.22;;;;;;;;;;10304326;28;20084;-63
2022/06/25 23:50:13;;;;;;;6.88;3.30;;;;;;;;;;10289998;28;20541;-63
2022/06/25 23:55:12;;;;;;;6.10;2.83;;;;;;;;;;10293300;28;20072;-63
